createdAt,value
2022-08-19T00:01:31.653Z,28.75
2022-08-19T00:04:00.136Z,29.92
2022-08-19T00:06:29.243Z,31.10
2022-08-19T00:08:57.930Z,30.15
2022-08-19T00:11:28.424Z,29.63
2022-08-19T00:13:57.453Z,27.85
2022-08-19T00:16:26.498Z,27.70
2022-08-19T00:18:57.248Z,27.58
2022-08-19T00:21:25.711Z,27.60
2022-08-19T00:23:52.933Z,27.20
2022-08-19T00:26:20.255Z,28.25
2022-08-19T00:28:47.970Z,26.67
2022-08-19T00:31:14.773Z,28.00
2022-08-19T00:33:42.064Z,24.55
2022-08-19T00:36:10.321Z,26.67
2022-08-19T00:38:38.919Z,26.48
2022-08-19T00:41:07.021Z,27.45
2022-08-19T00:43:34.072Z,26.05
2022-08-19T00:46:02.341Z,25.58
2022-08-19T00:48:29.173Z,25.80
2022-08-19T00:50:56.465Z,25.35
2022-08-19T00:53:27.386Z,26.35
2022-08-19T00:55:56.910Z,26.38
2022-08-19T00:58:28.338Z,26.02
2022-08-19T01:00:55.402Z,27.33
2022-08-19T01:03:23.403Z,28.25
2022-08-19T01:05:51.907Z,29.83
2022-08-19T01:08:19.872Z,27.67
2022-08-19T01:10:56.327Z,30.63
2022-08-19T01:13:27.599Z,27.35
2022-08-19T01:16:13.051Z,28.40
2022-08-19T01:18:42.733Z,28.92
2022-08-19T01:21:26.547Z,29.50
2022-08-19T01:23:53.391Z,29.80
2022-08-19T01:26:24.729Z,29.35
2022-08-19T01:28:57.365Z,27.88
2022-08-19T01:31:32.458Z,29.13
2022-08-19T01:34:00.812Z,29.17
2022-08-19T01:36:42.893Z,30.83
2022-08-19T01:39:12.672Z,30.92
2022-08-19T01:41:39.690Z,34.85
2022-08-19T01:44:16.941Z,35.60
2022-08-19T01:46:48.530Z,37.15
2022-08-19T01:49:16.781Z,37.83
2022-08-19T01:51:43.551Z,39.92
2022-08-19T01:54:11.344Z,39.70
2022-08-19T01:56:38.099Z,40.97
2022-08-19T01:59:13.079Z,42.40
2022-08-19T02:01:40.042Z,43.95
2022-08-19T02:04:06.835Z,44.35
2022-08-19T02:06:34.106Z,42.47
2022-08-19T02:09:01.197Z,43.60
2022-08-19T02:11:34.545Z,42.60
2022-08-19T02:14:07.161Z,44.67
2022-08-19T02:16:34.829Z,46.33
2022-08-19T02:19:01.782Z,45.40
2022-08-19T02:21:29.574Z,42.72
2022-08-19T02:23:56.871Z,46.47
2022-08-19T02:26:24.374Z,44.28
2022-08-19T02:28:51.107Z,46.90
2022-08-19T02:31:20.613Z,44.72
2022-08-19T02:33:48.959Z,41.88
2022-08-19T02:36:17.203Z,44.40
2022-08-19T02:38:54.503Z,41.40
2022-08-19T02:41:28.524Z,43.58
2022-08-19T02:44:26.615Z,38.75
2022-08-19T02:46:53.259Z,38.53
2022-08-19T02:49:20.656Z,37.90
2022-08-19T02:51:47.908Z,38.15
2022-08-19T02:54:16.482Z,38.45
2022-08-19T02:56:44.526Z,38.45
2022-08-19T02:59:12.291Z,37.05
2022-08-19T03:01:41.906Z,35.90
2022-08-19T03:04:10.864Z,36.75
2022-08-19T03:06:40.262Z,36.85
2022-08-19T03:09:06.983Z,35.90
2022-08-19T03:11:34.475Z,36.72
2022-08-19T03:14:02.362Z,37.00
2022-08-19T03:16:33.549Z,37.28
2022-08-19T03:19:01.931Z,36.92
2022-08-19T03:21:31.415Z,38.20
2022-08-19T03:24:01.021Z,35.63
2022-08-19T03:26:28.053Z,37.40
2022-08-19T03:28:58.020Z,36.80
2022-08-19T03:31:44.049Z,37.45
2022-08-19T03:34:19.305Z,35.70
2022-08-19T03:36:46.745Z,34.92
2022-08-19T03:39:14.826Z,33.45
2022-08-19T03:41:45.196Z,32.05
2022-08-19T03:44:19.139Z,32.97
2022-08-19T03:46:49.368Z,30.98
2022-08-19T03:49:18.262Z,32.75
2022-08-19T03:51:46.554Z,32.25
2022-08-19T03:54:16.343Z,30.95
2022-08-19T03:56:45.136Z,29.38
2022-08-19T03:59:17.018Z,27.73
2022-08-19T04:01:44.083Z,27.05
2022-08-19T04:04:10.913Z,28.17
2022-08-19T04:06:39.622Z,28.10
2022-08-19T04:09:09.441Z,26.58
2022-08-19T04:11:44.523Z,25.55
2022-08-19T04:14:20.524Z,25.65
2022-08-19T04:16:48.879Z,26.02
2022-08-19T04:19:17.568Z,26.17
2022-08-19T04:21:46.371Z,24.60
2022-08-19T04:24:14.124Z,24.23
2022-08-19T04:26:41.056Z,23.83
2022-08-19T04:29:12.800Z,24.35
2022-08-19T04:31:41.302Z,25.55
2022-08-19T04:34:11.839Z,23.50
2022-08-19T04:36:40.666Z,23.75
2022-08-19T04:39:12.806Z,23.45
2022-08-19T04:41:58.507Z,22.42
2022-08-19T04:44:26.497Z,22.15
2022-08-19T04:46:53.677Z,23.88
2022-08-19T04:49:23.202Z,23.65
2022-08-19T04:51:55.119Z,22.67
2022-08-19T04:54:37.080Z,23.58
2022-08-19T04:57:07.578Z,23.73
2022-08-19T04:59:34.841Z,23.23
2022-08-19T05:02:01.563Z,24.10
2022-08-19T05:04:31.539Z,23.73
2022-08-19T05:07:00.006Z,24.77
2022-08-19T05:09:28.341Z,23.35
2022-08-19T05:12:09.042Z,23.92
2022-08-19T05:14:37.518Z,21.48
2022-08-19T05:17:26.083Z,22.58
2022-08-19T05:20:09.490Z,20.83
2022-08-19T05:22:36.498Z,21.17
2022-08-19T05:25:12.982Z,21.88
2022-08-19T05:27:41.471Z,20.75
2022-08-19T05:30:08.823Z,20.88
2022-08-19T05:32:36.013Z,20.70
2022-08-19T05:35:02.979Z,20.75
2022-08-19T05:37:30.043Z,20.38
2022-08-19T05:39:56.816Z,20.60
2022-08-19T05:42:24.270Z,20.58
2022-08-19T05:44:51.768Z,21.75
2022-08-19T05:47:20.684Z,19.05
2022-08-19T05:49:48.310Z,19.13
2022-08-19T05:52:19.325Z,18.90
2022-08-19T05:54:51.237Z,18.75
2022-08-19T05:57:20.180Z,18.35
2022-08-19T05:59:49.377Z,17.92
2022-08-19T06:02:20.501Z,18.33
2022-08-19T06:04:47.330Z,19.15
2022-08-19T06:07:14.002Z,19.77
2022-08-19T06:09:43.689Z,19.05
2022-08-19T06:12:21.905Z,18.10
2022-08-19T06:14:48.622Z,19.40
2022-08-19T06:17:28.306Z,18.55
2022-08-19T06:19:54.953Z,19.00
2022-08-19T06:22:21.729Z,19.65
2022-08-19T06:24:48.531Z,18.95
2022-08-19T06:27:16.323Z,21.30
2022-08-19T06:29:43.398Z,21.13
2022-08-19T06:32:10.126Z,19.38
2022-08-19T06:34:36.880Z,21.35
2022-08-19T06:37:04.206Z,20.17
2022-08-19T06:39:33.957Z,21.95
2022-08-19T06:42:04.082Z,22.13
2022-08-19T06:44:35.288Z,21.17
2022-08-19T06:47:14.588Z,22.20
2022-08-19T06:49:42.845Z,22.75
2022-08-19T06:52:14.155Z,23.42
2022-08-19T06:54:55.570Z,23.30
2022-08-19T06:57:25.111Z,23.83
2022-08-19T06:59:52.319Z,22.90
2022-08-19T07:02:21.512Z,22.30
2022-08-19T07:04:48.781Z,24.20
2022-08-19T07:07:21.968Z,22.45
2022-08-19T07:09:57.290Z,25.58
2022-08-19T07:12:36.127Z,25.98
2022-08-19T07:15:09.723Z,25.85
2022-08-19T07:17:38.271Z,25.92
2022-08-19T07:20:09.609Z,24.17
2022-08-19T07:22:40.643Z,24.05
2022-08-19T07:25:08.984Z,25.10
2022-08-19T07:27:35.916Z,25.23
2022-08-19T07:30:03.825Z,25.05
2022-08-19T07:32:31.678Z,24.00
2022-08-19T07:35:01.440Z,24.02
2022-08-19T07:37:33.080Z,24.25
2022-08-19T07:40:01.122Z,22.30
2022-08-19T07:42:30.328Z,21.35
2022-08-19T07:44:57.310Z,21.58
2022-08-19T07:47:49.106Z,21.77
2022-08-19T07:50:12.515Z,20.35
2022-08-19T07:52:40.502Z,22.42
2022-08-19T07:55:11.459Z,20.73
2022-08-19T07:57:56.819Z,20.00
2022-08-19T08:00:24.401Z,19.20
2022-08-19T08:02:55.378Z,20.67
2022-08-19T08:05:43.903Z,19.85
2022-08-19T08:08:31.007Z,18.05
2022-08-19T08:10:59.323Z,17.55
2022-08-19T08:13:26.451Z,17.42
2022-08-19T08:15:54.875Z,18.60
2022-08-19T08:18:27.797Z,18.30
2022-08-19T08:20:58.364Z,17.92
2022-08-19T08:23:26.741Z,19.48
2022-08-19T08:25:56.592Z,18.23
2022-08-19T08:28:25.466Z,17.58
2022-08-19T08:30:53.298Z,17.52
2022-08-19T08:33:33.136Z,16.98
2022-08-19T08:36:09.172Z,17.65
2022-08-19T08:38:41.317Z,16.75
2022-08-19T08:41:35.748Z,16.02
2022-08-19T08:44:05.398Z,17.20
2022-08-19T08:46:40.971Z,15.70
2022-08-19T08:49:35.450Z,15.70
2022-08-19T08:52:08.162Z,16.05
2022-08-19T08:54:49.159Z,15.23
2022-08-19T08:57:50.531Z,15.27
2022-08-19T09:00:25.025Z,14.55
2022-08-19T09:02:51.930Z,16.10
2022-08-19T09:05:22.295Z,14.75
2022-08-19T09:08:12.142Z,15.15
2022-08-19T09:10:55.395Z,15.25
2022-08-19T09:13:57.117Z,15.80
2022-08-19T09:16:27.905Z,14.95
2022-08-19T09:18:59.786Z,14.80
2022-08-19T09:21:33.017Z,15.18
2022-08-19T09:24:05.409Z,14.77
2022-08-19T09:26:48.687Z,14.50
2022-08-19T09:29:21.044Z,14.70
2022-08-19T09:31:50.447Z,14.25
2022-08-19T09:34:21.262Z,14.45
2022-08-19T09:36:55.315Z,13.07
2022-08-19T09:39:22.481Z,13.85
2022-08-19T09:41:50.826Z,14.90
2022-08-19T09:44:18.926Z,13.40
2022-08-19T09:46:47.975Z,14.70
2022-08-19T09:49:15.915Z,14.50
2022-08-19T09:51:50.345Z,14.38
2022-08-19T09:54:23.720Z,14.48
2022-08-19T09:56:52.469Z,13.85
2022-08-19T09:59:19.289Z,14.27
2022-08-19T10:01:46.116Z,13.70
2022-08-19T10:04:20.174Z,13.70
2022-08-19T10:06:53.558Z,13.15
2022-08-19T10:09:26.209Z,15.18
2022-08-19T10:12:02.715Z,13.10
2022-08-19T10:14:30.093Z,13.00
2022-08-19T10:16:59.317Z,14.32
2022-08-19T10:19:26.733Z,12.93
2022-08-19T10:21:54.320Z,13.95
2022-08-19T10:24:25.154Z,13.88
2022-08-19T10:26:57.366Z,13.40
2022-08-19T10:29:32.553Z,13.57
2022-08-19T10:32:09.878Z,14.32
2022-08-19T10:37:15.314Z,15.18
2022-08-19T10:39:48.779Z,14.63
2022-08-19T10:42:17.149Z,14.93
2022-08-19T10:44:43.923Z,13.98
2022-08-19T10:47:17.766Z,14.35
2022-08-19T10:50:12.703Z,14.25
2022-08-19T10:52:50.385Z,13.45
2022-08-19T10:55:39.472Z,14.35
2022-08-19T10:58:15.484Z,13.23
2022-08-19T11:00:44.139Z,11.82
2022-08-19T11:03:11.483Z,11.43
2022-08-19T11:05:39.742Z,13.05
2022-08-19T11:08:22.479Z,12.15
2022-08-19T11:10:52.242Z,12.77
2022-08-19T11:13:19.023Z,12.98
2022-08-19T11:15:48.267Z,12.65
2022-08-19T11:18:14.973Z,12.10
2022-08-19T11:20:41.695Z,12.98
2022-08-19T11:23:10.726Z,13.15
2022-08-19T11:25:40.220Z,12.48
2022-08-19T11:28:07.086Z,12.13
2022-08-19T11:30:34.560Z,12.05
2022-08-19T11:33:01.939Z,10.73
2022-08-19T11:35:29.039Z,11.48
2022-08-19T11:37:57.050Z,12.52
2022-08-19T11:40:26.506Z,11.85
2022-08-19T11:42:57.488Z,11.45
2022-08-19T11:45:29.000Z,12.48
2022-08-19T11:47:56.455Z,11.57
2022-08-19T11:50:24.534Z,11.88
2022-08-19T11:52:55.395Z,11.18
2022-08-19T11:55:22.423Z,11.13
2022-08-19T11:57:49.254Z,9.80
2022-08-19T12:00:16.212Z,9.52
2022-08-19T12:02:43.468Z,9.20
2022-08-19T12:05:12.642Z,9.68
2022-08-19T12:07:43.399Z,9.77
2022-08-19T12:10:10.856Z,10.15
2022-08-19T12:12:43.343Z,10.38
2022-08-19T12:15:11.795Z,10.10
2022-08-19T12:17:39.021Z,10.55
2022-08-19T12:20:07.331Z,9.65
2022-08-19T12:22:34.154Z,10.10
2022-08-19T12:25:03.194Z,11.00
2022-08-19T12:27:35.707Z,10.73
2022-08-19T12:30:11.125Z,9.80
2022-08-19T12:32:43.113Z,10.10
2022-08-19T12:35:12.326Z,9.77
2022-08-19T12:37:40.233Z,9.35
2022-08-19T12:40:07.669Z,9.13
2022-08-19T12:42:34.478Z,8.70
2022-08-19T12:45:01.168Z,8.90
2022-08-19T12:47:27.962Z,8.80
2022-08-19T12:49:55.981Z,9.43
2022-08-19T12:52:28.147Z,8.32
2022-08-19T12:54:56.634Z,8.82
2022-08-19T12:57:32.078Z,8.75
2022-08-19T13:00:17.410Z,8.02
2022-08-19T13:02:46.634Z,8.20
2022-08-19T13:05:21.828Z,8.30
2022-08-19T13:07:53.237Z,8.27
2022-08-19T13:10:21.837Z,8.10
2022-08-19T13:12:50.343Z,7.82
2022-08-19T13:15:23.859Z,8.02
2022-08-19T13:17:53.607Z,7.60
2022-08-19T13:20:22.412Z,7.80
2022-08-19T13:22:49.718Z,7.57
2022-08-19T13:25:18.541Z,7.75
2022-08-19T13:27:45.481Z,8.85
2022-08-19T13:30:32.824Z,8.43
2022-08-19T13:33:11.732Z,7.63
2022-08-19T13:35:48.205Z,8.00
2022-08-19T13:38:21.627Z,7.95
2022-08-19T13:40:52.463Z,9.80
2022-08-19T13:43:22.793Z,9.25
2022-08-19T13:45:53.631Z,8.05
2022-08-19T13:48:21.676Z,8.32
2022-08-19T13:50:49.130Z,8.10
2022-08-19T13:53:16.799Z,9.10
2022-08-19T13:55:46.129Z,8.00
2022-08-19T13:58:14.173Z,7.43
2022-08-19T14:00:46.729Z,7.28
2022-08-19T14:03:14.719Z,7.72
2022-08-19T14:05:41.827Z,6.88
2022-08-19T14:08:09.763Z,7.45
2022-08-19T14:10:36.824Z,7.05
2022-08-19T14:13:13.408Z,7.13
2022-08-19T14:15:40.602Z,7.13
2022-08-19T14:18:10.397Z,7.15
2022-08-19T14:20:40.046Z,6.00
2022-08-19T14:23:10.206Z,6.10
2022-08-19T14:25:39.732Z,6.22
2022-08-19T14:28:12.333Z,7.13
2022-08-19T14:30:39.215Z,6.05
2022-08-19T14:33:09.554Z,6.28
2022-08-19T14:35:37.308Z,6.60
2022-08-19T14:38:08.293Z,5.97
2022-08-19T14:40:37.565Z,5.78
2022-08-19T14:43:10.797Z,6.05
2022-08-19T14:45:40.862Z,5.28
2022-08-19T14:48:12.593Z,6.03
2022-08-19T14:50:48.806Z,5.93
2022-08-19T14:53:18.220Z,5.72
2022-08-19T14:55:46.573Z,6.22
2022-08-19T14:58:29.184Z,5.72
2022-08-19T15:00:58.531Z,6.60
2022-08-19T15:03:25.290Z,6.82
2022-08-19T15:05:55.091Z,5.40
2022-08-19T15:08:25.966Z,6.43
2022-08-19T15:10:59.218Z,5.43
2022-08-19T15:13:27.973Z,5.93
2022-08-19T15:15:56.519Z,5.97
2022-08-19T15:18:26.156Z,5.57
2022-08-19T15:20:53.139Z,5.60
2022-08-19T15:23:21.931Z,5.75
2022-08-19T15:25:54.486Z,5.20
2022-08-19T15:28:22.671Z,5.60
2022-08-19T15:30:53.140Z,5.57
2022-08-19T15:33:21.233Z,5.68
2022-08-19T15:35:49.898Z,6.43
2022-08-19T15:38:19.961Z,6.40
2022-08-19T15:40:48.736Z,5.90
2022-08-19T15:43:16.850Z,5.60
2022-08-19T15:45:49.294Z,5.72
2022-08-19T15:48:16.593Z,5.65
2022-08-19T15:50:43.661Z,6.10
2022-08-19T15:53:11.053Z,6.05
2022-08-19T15:55:43.736Z,6.35
2022-08-19T15:58:32.913Z,6.15
2022-08-19T16:01:21.539Z,6.35
2022-08-19T16:04:13.706Z,6.03
2022-08-19T16:06:48.279Z,6.72
2022-08-19T16:09:16.911Z,6.30
2022-08-19T16:11:46.392Z,6.22
2022-08-19T16:14:18.656Z,6.85
2022-08-19T16:16:47.761Z,6.97
2022-08-19T16:19:17.864Z,7.47
2022-08-19T16:21:50.780Z,6.45
2022-08-19T16:24:20.123Z,6.93
2022-08-19T16:26:50.462Z,7.03
2022-08-19T16:29:33.545Z,6.40
2022-08-19T16:32:17.600Z,6.60
2022-08-19T16:34:49.966Z,6.47
2022-08-19T16:37:25.305Z,7.20
2022-08-19T16:39:55.067Z,7.10
2022-08-19T16:42:24.246Z,6.88
2022-08-19T16:44:51.597Z,7.35
2022-08-19T16:47:25.034Z,7.43
2022-08-19T16:49:55.647Z,7.57
2022-08-19T16:52:29.000Z,7.50
2022-08-19T16:54:58.891Z,7.55
2022-08-19T16:57:25.769Z,7.88
2022-08-19T16:59:54.919Z,7.22
2022-08-19T17:02:30.456Z,8.80
2022-08-19T17:04:59.022Z,9.53
2022-08-19T17:07:27.943Z,8.20
2022-08-19T17:09:57.857Z,8.43
2022-08-19T17:12:29.051Z,9.05
2022-08-19T17:15:00.013Z,9.45
2022-08-19T17:17:29.800Z,9.73
2022-08-19T17:20:00.791Z,9.32
2022-08-19T17:22:29.661Z,8.82
2022-08-19T17:25:02.098Z,9.35
2022-08-19T17:27:32.248Z,10.85
2022-08-19T17:30:03.050Z,10.45
2022-08-19T17:32:30.787Z,10.63
2022-08-19T17:35:01.106Z,10.23
2022-08-19T17:37:28.234Z,10.07
2022-08-19T17:39:55.551Z,10.70
2022-08-19T17:42:24.620Z,10.82
2022-08-19T17:44:53.972Z,11.15
2022-08-19T17:47:23.443Z,11.65
2022-08-19T17:49:50.509Z,10.73
2022-08-19T17:52:20.585Z,11.02
2022-08-19T17:54:47.830Z,10.93
2022-08-19T17:57:15.690Z,10.70
2022-08-19T17:59:45.003Z,10.77
2022-08-19T18:02:15.075Z,11.77
2022-08-19T18:04:45.536Z,10.93
2022-08-19T18:07:20.042Z,11.20
2022-08-19T18:09:54.599Z,11.48
2022-08-19T18:12:26.810Z,11.65
2022-08-19T18:14:54.279Z,11.68
2022-08-19T18:17:27.388Z,11.48
2022-08-19T18:19:54.862Z,11.52
2022-08-19T18:22:26.958Z,11.32
2022-08-19T18:24:58.319Z,12.40
2022-08-19T18:27:27.851Z,13.13
2022-08-19T18:29:59.794Z,13.70
2022-08-19T18:32:38.893Z,12.30
2022-08-19T18:35:11.044Z,12.95
2022-08-19T18:37:46.794Z,13.68
2022-08-19T18:40:37.411Z,14.52
2022-08-19T18:43:23.431Z,14.77
2022-08-19T18:46:44.033Z,15.35
2022-08-19T18:49:15.603Z,14.95
2022-08-19T18:51:45.890Z,16.02
2022-08-19T18:54:12.949Z,14.55
2022-08-19T18:56:48.089Z,13.73
2022-08-19T18:59:15.766Z,13.20
2022-08-19T19:01:52.973Z,14.95
2022-08-19T19:04:22.593Z,14.55
2022-08-19T19:06:49.745Z,16.75
2022-08-19T19:09:21.020Z,17.33
2022-08-19T19:11:55.444Z,17.20
2022-08-19T19:14:48.279Z,18.40
2022-08-19T19:17:25.827Z,19.67
2022-08-19T19:19:55.339Z,19.08
2022-08-19T19:22:26.603Z,19.88
2022-08-19T19:24:57.684Z,19.15
2022-08-19T19:27:24.627Z,17.90
2022-08-19T19:29:52.704Z,17.58
2022-08-19T19:32:29.406Z,19.17
2022-08-19T19:37:23.376Z,17.98
2022-08-19T19:39:50.232Z,17.13
2022-08-19T19:42:27.829Z,17.15
2022-08-19T19:44:58.683Z,16.13
2022-08-19T19:47:28.488Z,15.38
2022-08-19T19:52:45.563Z,16.35
2022-08-19T19:55:17.902Z,15.60
2022-08-19T19:57:47.052Z,14.40
2022-08-19T20:00:18.883Z,16.25
2022-08-19T20:02:50.334Z,15.63
2022-08-19T20:05:21.193Z,16.05
2022-08-19T20:08:08.351Z,16.17
2022-08-19T20:10:37.105Z,15.65
2022-08-19T20:13:05.392Z,15.43
2022-08-19T20:15:33.030Z,16.50
2022-08-19T20:18:05.192Z,14.40
2022-08-19T20:20:32.113Z,14.40
2022-08-19T20:22:59.121Z,16.45
2022-08-19T20:25:26.009Z,16.33
2022-08-19T20:27:52.798Z,17.27
2022-08-19T20:30:23.153Z,16.98
2022-08-19T20:32:50.719Z,16.80
2022-08-19T20:35:22.738Z,18.77
2022-08-19T20:37:52.896Z,17.50
2022-08-19T20:40:23.110Z,16.08
2022-08-19T20:42:50.692Z,17.02
2022-08-19T20:45:33.256Z,17.70
2022-08-19T20:48:02.672Z,17.85
2022-08-19T20:50:30.544Z,18.20
2022-08-19T20:52:57.891Z,18.65
2022-08-19T20:55:26.381Z,17.42
2022-08-19T20:57:54.190Z,19.90
2022-08-19T21:00:21.075Z,18.50
2022-08-19T21:02:47.829Z,19.00
2022-08-19T21:05:14.999Z,18.48
2022-08-19T21:07:41.698Z,18.33
2022-08-19T21:10:08.567Z,19.17
2022-08-19T21:12:35.451Z,16.25
2022-08-19T21:15:02.352Z,16.63
2022-08-19T21:17:29.053Z,17.73
2022-08-19T21:19:55.752Z,17.58
2022-08-19T21:22:22.398Z,19.13
2022-08-19T21:24:49.106Z,18.55
2022-08-19T21:27:15.887Z,17.58
2022-08-19T21:29:43.115Z,18.38
2022-08-19T21:32:14.196Z,18.98
2022-08-19T21:34:43.907Z,17.40
2022-08-19T21:37:24.773Z,16.75
2022-08-19T21:39:53.447Z,19.10
2022-08-19T21:42:21.192Z,20.38
2022-08-19T21:44:48.053Z,20.70
2022-08-19T21:47:14.949Z,20.13
2022-08-19T21:49:41.704Z,18.75
2022-08-19T21:52:08.824Z,17.88
2022-08-19T21:54:38.238Z,16.67
2022-08-19T21:57:10.040Z,17.98
2022-08-19T21:59:41.196Z,16.15
2022-08-19T22:02:20.028Z,17.90
2022-08-19T22:09:42.882Z,19.88
2022-08-19T22:12:23.939Z,21.13
2022-08-19T22:14:51.860Z,22.05
2022-08-19T22:17:19.770Z,22.25
2022-08-19T22:19:47.029Z,22.13
2022-08-19T22:22:19.173Z,22.13
2022-08-19T22:24:45.855Z,21.42
2022-08-19T22:27:13.980Z,25.75
2022-08-19T22:29:40.749Z,25.58
2022-08-19T22:32:28.450Z,25.98
2022-08-19T22:34:58.540Z,27.00
2022-08-19T22:37:26.915Z,25.55
2022-08-19T22:39:53.708Z,25.20
2022-08-19T22:42:21.952Z,25.15
2022-08-19T22:44:49.036Z,26.02
2022-08-19T22:47:15.806Z,23.70
2022-08-19T22:49:42.710Z,21.60
2022-08-19T22:52:17.371Z,21.88
2022-08-19T22:54:50.869Z,23.55
2022-08-19T22:57:21.458Z,24.83
2022-08-19T22:59:50.564Z,25.20
2022-08-19T23:02:23.685Z,22.30
2022-08-19T23:04:51.499Z,23.30
2022-08-19T23:07:19.638Z,24.95
2022-08-19T23:09:50.803Z,26.35
2022-08-19T23:12:26.990Z,24.02
2022-08-19T23:14:53.694Z,24.88
2022-08-19T23:17:20.538Z,23.23
2022-08-19T23:19:47.307Z,19.65
2022-08-19T23:22:17.788Z,20.00
2022-08-19T23:24:44.558Z,21.42
2022-08-19T23:27:29.826Z,22.55
2022-08-19T23:30:15.089Z,23.38
2022-08-19T23:32:41.863Z,22.52
2022-08-19T23:35:08.998Z,23.20
2022-08-19T23:37:37.093Z,23.90
2022-08-19T23:40:06.658Z,22.58
2022-08-19T23:42:33.513Z,23.38
2022-08-19T23:45:06.814Z,21.13
2022-08-19T23:47:35.489Z,20.40
2022-08-19T23:50:06.344Z,22.45
2022-08-19T23:52:41.579Z,21.80
2022-08-19T23:55:08.919Z,23.05
2022-08-19T23:57:35.712Z,25.33
